Aérodrome :
LOGIN :

S'inscrire | Disclaimer

   EN    FR    IT 

 










Légende :    VFR   VFR Marginal   IFR   IFR Intensif   IFR Très Intensif
Visi : 
Plafond : 
>= 8 km
>= 3000ft
5 à 8 km
1000 à 3000 ft
1500m à 5 km
500 à 1000 ft
800 à 1500m
200 à 500 ft
< 800m
< 200 ft
Symboles :   Orages  Brouillard  Fortes neiges  Fortes précipitations  Vent > 20 kt
SIGMETs :   Divers  Orages  Givrage  Turbulence  Onde Orograph.  Cendres Volcan.







- Altitude de l'aérodrome : 2945 ft
- Code IATA : RGS


LEBG - Burgos

DERNIER METAR :
  • 291300Z 27008KT 230V320 9999 FEW035CB 20/11 Q1016

METARs EXPIRÉS :
  • 291230Z 23009KT 190V260 9999 FEW035CB 20/11 Q1016
  • 291200Z 24007KT 190V290 9999 FEW032CB 19/11 Q1017
  • 291130Z 25012KT 230V290 9999 VCSH SCT032TCU 18/12 Q1017
  • 291100Z 23007KT 170V290 9999 VCSH FEW032TCU 19/11 Q1017
  • 291030Z 23009KT 180V270 9999 FEW030TCU 18/11 Q1017

TAF TAF LEBG
Valide du 29 à 12h jusqu'au 29 à 21h UTC


291100Z 2912/2921 25008KT 9999 SCT040
TEMPO 2912/2920 VRB15G25KT 3000 TSRA SCT020CB SCT030TCU
BECMG 2916/2917 03010KT
Pas de NOTAMs connus pour ce terrain.
3 SIGMETs publiés pour la FIR Madrid (LECM) :
 
Orages noyés dans la masse
LECM SIGMET 8 VALID 291300/291500 LEVA
LECM MADRID FIR/UIR EMBD TS OBS AT 1300Z N OF LINE N4110 W00210 - N41 W001 TOP FL360 STNR NC=
Orages noyés dans la masse
LECM SIGMET 7 VALID 291138/291400 LEVA
LECM MADRID FIR/UIR EMBD TS OBS AT 1138Z N OF LINE N4130 W00410 - N4130 W00220 TOP FL360 STNR NC=
Orages noyés dans la masse
LECM SIGMET 6 VALID 291015/291300 LEVA
LECM MADRID FIR/UIR EMBD TS OBS AT 1015Z WI N4250 W00040 - N4120 W00130 - N4130 W00240 - N4340 W002 TOP FL360 MOV N NC=



MET'MAP, la Météo Aéronautique d'un coup d'oeil ! - Copyright ORBIFLY Décembre 2007 - Disclaimer

ORBIFLY MET'MAP TEAM :

Programmation & Développement : Alexandra Zaïnal
Conception & Développement : Baudouin d'Aumeries
Co-Programmation & Développement : Marc-Olivier Méhu
Soutien technique & logistique : Manuel Goepfert

Contact : metmap@orbifly.com




SOURCES & CREDITS :

   NOAA